Time;durP1;ratioP1;P1;durP2;ratioP2;P2;SDS_P1;SDS_P2;PMS_P1;PMS_P2;Temp;Humidity;BMP_temperature;BMP_pressure;BME280_temperature;BME280_humidity;BME280_pressure;Samples;Min_cycle;Max_cycle;Signal;HPM_P1;HPM_P2
2023/01/22 00:01:17;;;;;;;17.55;9.55;;;;;;;4.34;72.28;100569.19;4934728;29;20053;-79
2023/01/22 00:03:45;;;;;;;19.38;10.23;;;;;;;4.35;70.39;100573.56;4953996;29;20062;-79
2023/01/22 00:06:14;;;;;;;33.45;14.68;;;;;;;4.32;70.49;100571.31;4953929;29;20067;-79
2023/01/22 00:08:42;;;;;;;19.85;10.25;;;;;;;4.28;68.66;100576.38;4937051;29;20055;-79
2023/01/22 00:11:10;;;;;;;19.17;9.77;;;;;;;4.29;68.97;100575.31;4954018;29;20074;-79
2023/01/22 00:13:39;;;;;;;15.10;8.30;;;;;;;4.30;69.31;100580.50;4953961;29;20066;-79
2023/01/22 00:16:09;;;;;;;13.00;7.70;;;;;;;4.36;66.86;100580.59;4951930;29;20520;-79
2023/01/22 00:18:37;;;;;;;12.98;7.38;;;;;;;4.37;65.66;100580.38;4953487;29;20059;-79
2023/01/22 00:21:05;;;;;;;16.15;7.72;;;;;;;4.39;67.27;100583.66;4953846;29;20054;-79
2023/01/22 00:23:33;;;;;;;13.18;6.90;;;;;;;4.48;63.65;100576.00;4953183;29;20048;-79
2023/01/22 00:26:03;;;;;;;13.25;7.28;;;;;;;4.59;64.60;100581.63;4953506;29;20043;-79
2023/01/22 00:28:31;;;;;;;10.80;5.93;;;;;;;4.62;62.35;100587.38;4952986;29;20051;-79
2023/01/22 00:31:01;;;;;;;12.82;6.18;;;;;;;4.74;61.14;100584.63;4936565;29;20056;-79
2023/01/22 00:33:30;;;;;;;12.65;6.18;;;;;;;4.82;57.82;100583.44;4936609;29;20043;-79
2023/01/22 00:36:10;;;;;;;12.02;6.50;;;;;;;4.94;60.02;100592.34;4954823;28;20051;-79
2023/01/22 00:38:38;;;;;;;13.48;6.93;;;;;;;5.04;61.81;100594.44;4956106;29;20059;-79
2023/01/22 00:41:08;;;;;;;12.10;6.90;;;;;;;4.96;65.03;100600.25;4938159;29;20044;-79
2023/01/22 00:43:40;;;;;;;13.60;8.05;;;;;;;4.88;65.64;100598.72;4921087;29;20054;-79
2023/01/22 00:46:10;;;;;;;15.27;8.60;;;;;;;4.81;66.96;100596.19;4921365;29;20406;-79
2023/01/22 00:48:38;;;;;;;14.88;7.78;;;;;;;4.70;68.30;100595.13;4937822;29;20044;-79
2023/01/22 00:51:11;;;;;;;12.15;8.05;;;;;;;4.56;68.27;100604.63;4955263;29;20048;-79
2023/01/22 00:53:40;;;;;;;19.38;7.90;;;;;;;4.42;69.26;100604.03;4957165;29;20050;-79
2023/01/22 00:56:09;;;;;;;12.13;7.97;;;;;;;4.45;69.68;100611.69;4940041;29;20054;-79
2023/01/22 00:58:37;;;;;;;17.52;8.13;;;;;;;4.36;69.91;100610.41;4937279;29;20056;-79
2023/01/22 01:01:06;;;;;;;14.70;8.43;;;;;;;4.21;71.42;100617.13;4937684;29;20486;-79
2023/01/22 01:03:35;;;;;;;18.95;8.40;;;;;;;4.29;69.22;100616.78;4955873;29;20521;-79
2023/01/22 01:06:18;;;;;;;15.50;9.13;;;;;;;4.40;68.62;100619.72;4949720;29;20197;-79
2023/01/22 01:08:47;;;;;;;12.20;7.47;;;;;;;4.38;69.78;100609.13;4909544;29;20052;-79
2023/01/22 01:11:21;;;;;;;13.70;7.72;;;;;;;4.35;68.85;100614.19;4933734;29;20044;-79
2023/01/22 01:13:50;;;;;;;14.75;8.48;;;;;;;4.28;70.71;100612.44;4937698;29;20058;-79
2023/01/22 01:16:22;;;;;;;12.82;7.75;;;;;;;4.23;70.93;100615.03;4920721;29;20502;-79
2023/01/22 01:18:50;;;;;;;15.80;6.97;;;;;;;4.30;67.68;100614.88;4936119;29;20051;-80
2023/01/22 01:21:19;;;;;;;11.23;7.07;;;;;;;4.28;68.45;100617.84;4937491;29;20051;-79
2023/01/22 01:23:48;;;;;;;11.07;6.80;;;;;;;4.32;68.58;100615.50;4937481;29;20039;-79
2023/01/22 01:26:17;;;;;;;15.23;7.65;;;;;;;4.35;69.40;100619.63;4937362;29;20043;-79
2023/01/22 01:28:45;;;;;;;17.33;8.38;;;;;;;4.40;72.53;100622.44;4937177;29;20055;-79
2023/01/22 01:31:15;;;;;;;13.40;7.38;;;;;;;4.43;72.21;100627.38;4937150;29;20056;-79
2023/01/22 01:33:44;;;;;;;12.70;6.97;;;;;;;4.40;70.22;100622.44;4937418;29;20050;-79
2023/01/22 01:36:19;;;;;;;12.73;7.38;;;;;;;4.50;68.47;100625.34;4937245;29;20051;-79
2023/01/22 01:39:08;;;;;;;13.85;7.47;;;;;;;4.52;68.88;100625.13;4937357;29;20062;-79
2023/01/22 01:41:36;;;;;;;11.13;6.88;;;;;;;4.61;69.52;100623.69;4920353;29;20406;-79
2023/01/22 01:44:15;;;;;;;12.93;8.10;;;;;;;4.59;69.93;100630.41;4937186;29;20054;-79
2023/01/22 01:46:50;;;;;;;14.90;8.60;;;;;;;4.54;70.15;100634.66;4936803;29;20399;-79
2023/01/22 01:49:43;;;;;;;12.13;7.55;;;;;;;4.51;69.72;100637.03;4919354;29;20047;-79
2023/01/22 01:52:13;;;;;;;15.05;8.15;;;;;;;4.50;71.93;100638.09;4937094;29;20044;-79
2023/01/22 01:54:46;;;;;;;14.35;7.57;;;;;;;4.44;72.74;100629.84;4936904;29;20058;-78
2023/01/22 01:57:25;;;;;;;13.20;7.57;;;;;;;4.42;73.96;100647.41;4939199;29;20052;-79
2023/01/22 01:59:55;;;;;;;18.95;8.93;;;;;;;4.26;72.77;100641.63;4955545;29;20059;-79
2023/01/22 02:02:23;;;;;;;18.92;9.02;;;;;;;4.22;71.15;100643.19;4938749;29;20051;-78
2023/01/22 02:04:53;;;;;;;14.95;9.23;;;;;;;4.11;71.09;100642.09;4951091;29;20418;-79
2023/01/22 02:07:21;;;;;;;13.95;7.95;;;;;;;4.14;71.05;100643.50;4936648;29;20055;-79
2023/01/22 02:09:49;;;;;;;13.93;8.00;;;;;;;4.22;70.84;100651.31;4920355;29;20048;-79
2023/01/22 02:12:17;;;;;;;11.55;7.32;;;;;;;4.19;73.25;100651.75;4919641;29;20040;-79
2023/01/22 02:14:48;;;;;;;14.02;8.07;;;;;;;4.21;74.57;100652.34;4919489;29;20063;-79
2023/01/22 02:17:21;;;;;;;17.17;8.38;;;;;;;4.13;75.17;100650.00;4919609;29;20407;-78
2023/01/22 02:19:50;;;;;;;13.20;7.90;;;;;;;4.19;73.92;100642.81;4912224;29;20078;-79
2023/01/22 02:22:21;;;;;;;13.73;8.10;;;;;;;4.16;74.24;100646.81;4936408;29;20060;-79
2023/01/22 02:24:50;;;;;;;19.02;8.00;;;;;;;4.11;74.42;100646.72;4927821;29;20044;-79
2023/01/22 02:27:18;;;;;;;16.48;7.72;;;;;;;4.08;74.10;100647.16;4935103;29;20043;-79
2023/01/22 02:29:47;;;;;;;14.73;8.18;;;;;;;4.03;76.09;100646.00;4918980;29;20518;-79
2023/01/22 02:32:15;;;;;;;13.77;8.07;;;;;;;4.03;75.39;100651.41;4919115;29;20059;-79
2023/01/22 02:34:43;;;;;;;14.30;7.63;;;;;;;4.05;73.56;100644.94;4919268;29;20051;-79
2023/01/22 02:37:11;;;;;;;11.93;7.07;;;;;;;4.07;71.53;100648.22;4936055;29;20063;-79
2023/01/22 02:39:39;;;;;;;12.63;6.90;;;;;;;3.97;71.49;100651.50;4935955;29;20040;-78
2023/01/22 02:42:08;;;;;;;12.93;6.75;;;;;;;4.09;71.85;100654.22;4936125;29;20047;-79
2023/01/22 02:44:37;;;;;;;11.02;6.15;;;;;;;4.13;70.16;100655.41;4918985;29;20048;-79
2023/01/22 02:47:06;;;;;;;14.00;7.68;;;;;;;4.16;70.67;100657.66;4935895;29;20046;-79
2023/01/22 02:49:34;;;;;;;12.13;7.50;;;;;;;4.25;71.40;100653.53;4919846;29;20434;-79
2023/01/22 02:52:02;;;;;;;16.02;7.90;;;;;;;4.18;72.36;100650.13;4918883;29;20058;-79
2023/01/22 02:54:30;;;;;;;12.65;7.60;;;;;;;4.20;73.85;100656.13;4934712;29;20039;-79
2023/01/22 02:56:58;;;;;;;14.80;7.90;;;;;;;4.07;74.53;100661.75;4935787;29;20048;-79
2023/01/22 02:59:26;;;;;;;12.75;8.43;;;;;;;3.89;76.95;100658.09;4935337;29;20402;-79
2023/01/22 03:01:55;;;;;;;15.15;8.45;;;;;;;3.82;77.00;100660.91;4918802;29;20055;-79
2023/01/22 03:04:26;;;;;;;15.70;8.45;;;;;;;3.70;77.10;100652.75;4918789;29;20052;-79
2023/01/22 03:06:54;;;;;;;14.45;7.95;;;;;;;3.66;78.77;100656.97;4935513;29;20059;-79
2023/01/22 03:09:24;;;;;;;12.90;7.85;;;;;;;3.57;80.73;100655.69;4918877;29;20059;-78
2023/01/22 03:11:51;;;;;;;15.10;8.63;;;;;;;3.56;79.73;100651.34;4918568;29;20503;-78
2023/01/22 03:22:47;;;;;;;15.68;7.97;;;;;;;3.61;78.58;100648.72;4918450;29;20070;-79
2023/01/22 03:25:15;;;;;;;14.05;8.55;;;;;;;3.73;77.40;100644.16;4935384;29;20490;-79
2023/01/22 03:30:33;;;;;;;11.02;6.65;;;;;;;3.89;75.09;100649.97;4944143;29;20055;-79
2023/01/22 03:33:01;;;;;;;9.68;6.80;;;;;;;3.92;74.93;100654.94;4954160;29;20039;-80
2023/01/22 03:35:29;;;;;;;11.35;7.30;;;;;;;3.93;73.55;100653.88;4952803;29;20054;-79
2023/01/22 03:38:11;;;;;;;10.77;6.40;;;;;;;3.82;75.07;100654.69;4937500;29;20047;-79
2023/01/22 03:40:39;;;;;;;11.40;6.70;;;;;;;3.70;74.44;100646.53;4944166;29;20402;-79
2023/01/22 03:43:08;;;;;;;12.85;7.65;;;;;;;3.87;74.45;100652.09;4927766;29;20040;-79
2023/01/22 03:45:36;;;;;;;12.85;7.03;;;;;;;3.82;75.75;100655.47;4935065;29;20039;-79
2023/01/22 03:48:05;;;;;;;12.50;7.13;;;;;;;3.61;75.62;100648.72;4933784;29;20072;-79
2023/01/22 03:50:37;;;;;;;10.23;6.00;;;;;;;3.86;76.22;100645.03;4932477;29;20418;-79
2023/01/22 03:53:05;;;;;;;11.95;6.85;;;;;;;3.94;77.35;100663.63;4935069;29;20051;-79
2023/01/22 03:55:33;;;;;;;10.48;6.05;;;;;;;3.85;75.98;100659.59;4933777;29;20475;-79
2023/01/22 03:58:02;;;;;;;11.00;6.55;;;;;;;3.74;76.36;100670.19;4934972;29;20376;-79
2023/01/22 04:00:30;;;;;;;11.70;6.07;;;;;;;3.94;74.96;100682.59;4935633;29;20494;-79
2023/01/22 04:02:59;;;;;;;11.43;6.65;;;;;;;4.03;73.01;100677.66;4936705;29;20050;-79
2023/01/22 04:05:32;;;;;;;11.02;5.97;;;;;;;4.14;71.75;100689.56;4952944;29;20047;-79
2023/01/22 04:08:00;;;;;;;11.48;6.93;;;;;;;4.22;71.20;100691.94;4952598;29;20050;-79
2023/01/22 04:10:30;;;;;;;11.25;6.95;;;;;;;4.15;70.51;100697.47;4948401;29;20398;-80
2023/01/22 04:13:01;;;;;;;10.15;6.38;;;;;;;4.17;70.75;100695.31;4956747;29;20505;-79
2023/01/22 04:15:28;;;;;;;12.82;6.43;;;;;;;4.12;71.08;100697.09;4957903;29;20487;-79
2023/01/22 04:17:57;;;;;;;11.63;5.80;;;;;;;4.19;70.19;100692.41;4925004;29;20056;-79
2023/01/22 04:20:34;;;;;;;11.05;5.88;;;;;;;4.24;69.51;100689.81;4921668;29;20102;-79
2023/01/22 04:23:19;;;;;;;11.13;6.30;;;;;;;4.18;70.51;100693.47;4905692;29;20058;-79
2023/01/22 04:25:49;;;;;;;8.57;6.32;;;;;;;4.15;71.85;100696.63;4921597;29;20050;-79
2023/01/22 04:28:17;;;;;;;15.93;7.20;;;;;;;4.10;73.01;100699.22;4933257;29;20418;-79
2023/01/22 04:30:53;;;;;;;10.45;6.72;;;;;;;4.01;70.57;100691.44;4937010;29;20051;-79
2023/01/22 04:33:35;;;;;;;11.25;6.57;;;;;;;4.12;70.96;100691.69;4937138;29;20039;-79
2023/01/22 04:36:15;;;;;;;10.65;6.55;;;;;;;4.25;71.62;100699.59;4921313;29;20473;-79
2023/01/22 04:38:43;;;;;;;11.65;6.43;;;;;;;4.24;72.03;100700.66;4921311;29;20052;-79
2023/01/22 04:41:11;;;;;;;10.93;6.10;;;;;;;4.38;70.50;100705.81;4938232;29;20052;-79
2023/01/22 04:43:39;;;;;;;14.13;7.10;;;;;;;4.40;71.08;100717.28;4938235;29;20040;-79
2023/01/22 04:46:07;;;;;;;13.20;7.57;;;;;;;4.33;70.94;100719.25;4921216;29;20059;-79
2023/01/22 04:48:36;;;;;;;12.20;7.65;;;;;;;4.22;71.79;100721.75;4920874;29;20525;-79
2023/01/22 04:51:04;;;;;;;11.27;7.28;;;;;;;4.37;69.38;100725.88;4921101;29;20043;-79
2023/01/22 04:53:33;;;;;;;15.13;7.90;;;;;;;4.28;72.07;100722.66;4921146;29;20040;-79
2023/01/22 04:56:01;;;;;;;10.95;6.63;;;;;;;4.25;71.17;100728.56;4921169;29;20051;-79
2023/01/22 04:58:29;;;;;;;12.48;7.55;;;;;;;4.22;71.71;100735.28;4920927;29;20043;-79
2023/01/22 05:00:59;;;;;;;11.90;6.40;;;;;;;3.96;71.44;100734.63;4920818;29;20051;-79
2023/01/22 05:03:27;;;;;;;11.50;6.07;;;;;;;3.94;70.55;100725.91;4937897;29;20059;-79
2023/01/22 05:05:55;;;;;;;9.70;5.68;;;;;;;3.92;70.75;100728.03;4904929;29;20499;-79
2023/01/22 05:08:23;;;;;;;10.30;5.72;;;;;;;3.95;70.71;100727.56;4956738;29;20406;-79
2023/01/22 05:10:51;;;;;;;9.90;6.47;;;;;;;3.99;69.94;100730.63;4939376;29;20054;-79
2023/01/22 05:13:25;;;;;;;9.00;5.33;;;;;;;4.09;71.97;100735.47;4939765;29;20051;-79
2023/01/22 05:15:53;;;;;;;9.85;6.15;;;;;;;4.06;72.15;100744.09;4956771;29;20306;-79
2023/01/22 05:18:22;;;;;;;9.73;5.72;;;;;;;4.20;71.05;100744.69;4939339;29;20039;-79
2023/01/22 05:20:51;;;;;;;8.55;5.75;;;;;;;4.24;70.47;100743.16;4953096;29;20577;-79
2023/01/22 05:23:21;;;;;;;8.43;5.97;;;;;;;4.15;70.64;100751.63;4939167;29;20042;-79
2023/01/22 05:25:49;;;;;;;10.57;5.80;;;;;;;3.98;71.62;100756.91;4953300;29;20043;-79
2023/01/22 05:28:24;;;;;;;9.80;5.65;;;;;;;4.09;71.52;100749.84;4936097;29;20048;-79
2023/01/22 05:31:10;;;;;;;9.80;6.15;;;;;;;4.08;72.88;100756.34;4937177;29;20047;-79
2023/01/22 05:33:49;;;;;;;10.30;5.63;;;;;;;4.07;73.02;100748.44;4936234;29;20052;-79
2023/01/22 05:36:17;;;;;;;11.15;5.88;;;;;;;4.01;73.99;100751.00;4920274;29;20079;-79
2023/01/22 05:38:45;;;;;;;10.88;6.07;;;;;;;3.98;72.96;100756.91;4920218;29;20044;-79
2023/01/22 05:41:14;;;;;;;11.18;5.72;;;;;;;4.05;73.25;100764.09;4926637;29;20043;-79
2023/01/22 05:43:42;;;;;;;12.50;6.82;;;;;;;4.03;73.31;100765.16;4939265;29;20062;-79
2023/01/22 05:46:15;;;;;;;10.02;6.53;;;;;;;3.92;75.90;100765.13;4939281;29;20047;-79
2023/01/22 05:49:03;;;;;;;10.43;6.32;;;;;;;3.93;74.11;100770.31;4954877;29;20483;-79
2023/01/22 05:51:33;;;;;;;11.20;5.90;;;;;;;4.24;74.15;100767.53;4938773;29;20051;-79
2023/01/22 05:54:01;;;;;;;12.07;6.25;;;;;;;4.33;70.74;100778.84;4954629;29;20043;-78
2023/01/22 05:56:32;;;;;;;9.52;5.75;;;;;;;4.36;70.27;100781.13;4938754;29;20046;-79
2023/01/22 05:59:00;;;;;;;10.65;6.07;;;;;;;4.44;70.79;100788.91;4938652;29;20051;-81
2023/01/22 06:01:28;;;;;;;10.85;6.07;;;;;;;4.53;70.58;100784.78;4953944;29;20047;-79
2023/01/22 06:03:58;;;;;;;9.27;5.50;;;;;;;4.52;70.26;100793.16;4940496;29;20050;-79
2023/01/22 06:06:26;;;;;;;10.07;6.32;;;;;;;4.51;71.17;100802.34;4954853;29;20774;-79
2023/01/22 06:08:55;;;;;;;9.32;6.03;;;;;;;4.57;71.94;100802.25;4937249;29;20058;-80
2023/01/22 06:11:26;;;;;;;10.52;6.10;;;;;;;4.49;72.48;100805.28;4936481;29;20055;-80
2023/01/22 06:13:54;;;;;;;8.27;6.38;;;;;;;4.20;72.87;100815.94;4953110;29;20047;-80
2023/01/22 06:16:22;;;;;;;10.48;5.60;;;;;;;4.24;72.26;100819.00;4953882;29;20062;-79
2023/01/22 06:19:12;;;;;;;8.45;5.93;;;;;;;4.16;73.10;100831.03;4938141;29;20043;-80
2023/01/22 06:21:49;;;;;;;9.43;5.72;;;;;;;4.30;72.46;100823.50;4936896;29;20398;-79
2023/01/22 06:24:21;;;;;;;10.07;5.80;;;;;;;4.23;72.40;100836.31;4952390;29;20043;-79
2023/01/22 06:26:48;;;;;;;7.25;5.05;;;;;;;4.23;72.78;100833.63;4934394;29;20051;-79
2023/01/22 06:29:18;;;;;;;7.13;5.25;;;;;;;4.17;73.10;100838.09;4918598;29;20054;-79
2023/01/22 06:31:47;;;;;;;8.27;4.32;;;;;;;4.18;72.96;100837.03;4918804;29;20078;-79
2023/01/22 06:34:18;;;;;;;6.47;4.53;;;;;;;4.14;73.21;100838.53;4935481;29;20059;-80
2023/01/22 06:36:46;;;;;;;17.67;6.47;;;;;;;4.25;71.76;100836.94;4955082;29;20395;-80
2023/01/22 06:39:14;;;;;;;9.95;5.00;;;;;;;4.25;71.99;100842.38;4937089;29;20055;-80
2023/01/22 06:41:49;;;;;;;8.02;4.90;;;;;;;4.30;72.73;100846.00;4935706;29;20458;-79
2023/01/22 06:44:17;;;;;;;8.65;5.40;;;;;;;4.27;74.54;100845.66;4930489;29;20036;-80
2023/01/22 06:46:46;;;;;;;5.20;4.10;;;;;;;4.28;74.23;100853.56;4936979;29;20039;-80
2023/01/22 06:49:25;;;;;;;9.45;5.22;;;;;;;4.25;74.24;100854.00;4953484;29;20047;-80
2023/01/22 06:51:54;;;;;;;7.50;4.10;;;;;;;4.22;73.56;100851.78;4929281;29;20498;-79
2023/01/22 06:54:22;;;;;;;7.22;4.05;;;;;;;4.27;74.15;100860.03;4933307;29;20492;-80
2023/01/22 06:56:50;;;;;;;7.57;4.03;;;;;;;4.25;73.77;100858.63;4937374;29;20515;-79
2023/01/22 06:59:21;;;;;;;9.13;4.63;;;;;;;4.29;73.75;100860.63;4938794;29;20039;-80
2023/01/22 07:01:49;;;;;;;5.68;4.05;;;;;;;4.41;75.12;100862.53;4940478;29;20050;-79
2023/01/22 07:04:17;;;;;;;7.47;4.72;;;;;;;4.67;73.32;100850.47;4953563;29;20039;-80
2023/01/22 07:06:45;;;;;;;6.55;3.75;;;;;;;4.60;75.02;100851.63;4943216;28;20513;-80
2023/01/22 07:09:13;;;;;;;6.18;3.83;;;;;;;4.70;73.90;100854.59;4947625;29;20047;-80
2023/01/22 07:11:42;;;;;;;7.90;4.20;;;;;;;4.69;73.51;100851.03;4934246;29;20048;-78
2023/01/22 07:14:09;;;;;;;7.78;5.03;;;;;;;4.59;74.66;100858.09;4935534;29;20486;-77
2023/01/22 07:16:37;;;;;;;10.95;4.85;;;;;;;4.56;72.00;100857.50;4950589;29;20047;-76
2023/01/22 07:19:05;;;;;;;8.95;4.95;;;;;;;4.58;72.37;100854.56;4953635;29;20398;-77
2023/01/22 07:21:33;;;;;;;10.90;5.07;;;;;;;4.64;72.13;100861.75;4950426;29;20050;-76
2023/01/22 07:24:01;;;;;;;10.15;4.97;;;;;;;4.68;72.30;100862.13;4951106;29;20040;-76
2023/01/22 07:26:29;;;;;;;6.80;4.63;;;;;;;4.87;71.28;100871.00;4947122;29;20044;-76
2023/01/22 07:28:57;;;;;;;6.38;4.32;;;;;;;4.92;72.03;100873.00;4943960;28;20044;-76
2023/01/22 07:31:25;;;;;;;8.57;4.72;;;;;;;4.91;72.39;100876.78;4932777;29;20083;-76
2023/01/22 07:33:53;;;;;;;7.35;4.63;;;;;;;5.13;71.40;100887.06;4948865;28;20522;-76
2023/01/22 07:36:21;;;;;;;6.65;4.53;;;;;;;5.10;71.86;100897.28;4936268;29;20050;-75
2023/01/22 07:38:49;;;;;;;8.85;5.28;;;;;;;5.15;68.45;100902.03;4952908;29;20044;-76
2023/01/22 07:41:17;;;;;;;7.28;4.45;;;;;;;5.36;68.25;100900.63;4947710;29;20051;-74
2023/01/22 07:43:54;;;;;;;7.97;3.97;;;;;;;5.47;66.87;100906.28;4937413;29;20047;-74
2023/01/22 07:46:24;;;;;;;7.50;4.57;;;;;;;5.68;66.46;100909.44;4940275;28;20040;-75
2023/01/22 07:48:52;;;;;;;9.45;5.18;;;;;;;5.80;64.18;100918.38;4932091;29;20055;-75
2023/01/22 07:51:20;;;;;;;11.35;5.28;;;;;;;5.84;64.49;100919.56;4935331;29;20047;-75
2023/01/22 07:53:48;;;;;;;6.35;3.95;;;;;;;5.98;67.30;100917.41;4930684;28;21077;-76
2023/01/22 07:56:18;;;;;;;9.65;4.95;;;;;;;5.98;64.76;100924.72;4962250;28;20066;-76
2023/01/22 07:58:45;;;;;;;6.43;4.55;;;;;;;5.97;65.92;100925.78;4950076;29;20043;-76
2023/01/22 08:01:14;;;;;;;7.20;3.80;;;;;;;5.98;65.07;100935.56;4935576;29;20059;-75
2023/01/22 08:03:43;;;;;;;7.38;4.72;;;;;;;6.03;64.57;100938.44;4948085;29;20054;-75
2023/01/22 08:06:16;;;;;;;9.23;5.35;;;;;;;6.08;64.16;100938.53;4951281;29;20047;-77
2023/01/22 08:08:45;;;;;;;7.03;4.60;;;;;;;6.08;65.52;100932.28;4933620;29;20055;-77
2023/01/22 08:11:13;;;;;;;8.55;4.60;;;;;;;6.07;66.89;100939.63;4951677;29;20442;-76
2023/01/22 08:13:41;;;;;;;6.97;4.22;;;;;;;6.11;66.20;100939.97;4945612;29;20074;-78
2023/01/22 08:16:09;;;;;;;13.23;6.50;;;;;;;6.02;68.08;100942.19;4933063;29;20051;-80
2023/01/22 08:18:37;;;;;;;12.98;7.20;;;;;;;6.22;70.59;100943.69;4916180;29;20047;-76
2023/01/22 08:21:05;;;;;;;10.63;6.22;;;;;;;6.13;68.69;100951.41;4942108;29;20411;-78
2023/01/22 08:23:33;;;;;;;9.52;5.75;;;;;;;6.13;68.45;100957.66;4950924;29;20055;-78
2023/01/22 08:26:03;;;;;;;37.95;17.27;;;;;;;6.21;68.24;100958.34;4952564;29;20044;-80
2023/01/22 08:28:31;;;;;;;17.73;8.77;;;;;;;6.24;67.65;100946.97;4951535;29;20124;-78
2023/01/22 08:31:00;;;;;;;9.27;5.80;;;;;;;6.36;68.09;100955.09;4951636;29;20047;-77
2023/01/22 08:33:32;;;;;;;12.35;6.88;;;;;;;6.39;67.78;100944.56;4949752;29;20047;-77
2023/01/22 08:36:00;;;;;;;10.48;6.05;;;;;;;6.57;60.80;100956.31;4951407;29;20058;-77
2023/01/22 08:38:28;;;;;;;8.75;5.50;;;;;;;6.85;63.29;100962.81;4951009;29;20047;-77
2023/01/22 08:40:56;;;;;;;12.63;6.63;;;;;;;7.12;63.38;100960.28;4949473;29;20043;-77
2023/01/22 08:43:24;;;;;;;13.25;6.38;;;;;;;7.53;59.09;100965.50;4951416;29;20055;-78
2023/01/22 08:45:52;;;;;;;4.45;3.40;;;;;;;7.32;52.54;100966.25;4946926;29;20044;-77
2023/01/22 08:48:20;;;;;;;5.30;3.10;;;;;;;7.30;50.36;100973.88;4949369;29;20047;-78
2023/01/22 08:50:51;;;;;;;5.53;3.30;;;;;;;7.89;50.30;100981.56;4926991;29;20414;-77
2023/01/22 08:53:19;;;;;;;2.15;1.95;;;;;;;8.05;47.16;100974.41;4949791;29;20514;-77
2023/01/22 08:55:49;;;;;;;1.73;1.63;;;;;;;8.20;45.49;100981.09;4950526;29;20050;-77
2023/01/22 08:58:20;;;;;;;3.35;1.38;;;;;;;8.07;45.78;100977.69;4954455;28;20044;-78
2023/01/22 09:00:49;;;;;;;1.85;1.30;;;;;;;8.12;44.96;100984.28;4954624;29;20047;-77
2023/01/22 09:03:17;;;;;;;1.40;1.30;;;;;;;8.00;46.17;100973.50;4955255;29;20506;-77
2023/01/22 09:05:45;;;;;;;1.70;1.20;;;;;;;7.97;44.16;100983.00;4956274;29;20051;-78
2023/01/22 09:08:13;;;;;;;4.50;1.63;;;;;;;7.99;45.42;100991.75;4953392;29;20051;-77
2023/01/22 09:10:42;;;;;;;2.22;1.50;;;;;;;8.30;45.20;100991.31;4938301;29;20062;-78
2023/01/22 09:13:10;;;;;;;2.83;1.65;;;;;;;8.39;43.37;100994.41;4948672;29;20048;-77
2023/01/22 09:15:39;;;;;;;2.30;1.80;;;;;;;8.67;44.41;101003.47;4950264;29;20078;-77
2023/01/22 09:18:07;;;;;;;2.03;1.33;;;;;;;8.95;43.39;101009.78;4944093;29;20043;-78
2023/01/22 09:20:35;;;;;;;2.72;1.65;;;;;;;9.59;44.93;101002.66;4954819;29;20067;-77
2023/01/22 09:23:03;;;;;;;2.22;1.88;;;;;;;8.81;42.16;101012.09;4944110;29;20058;-77
2023/01/22 09:25:32;;;;;;;4.47;2.10;;;;;;;8.29;44.14;101017.78;4947466;28;20054;-77
2023/01/22 09:28:00;;;;;;;1.65;1.08;;;;;;;8.27;43.39;101013.66;4954596;28;20058;-77
2023/01/22 09:30:29;;;;;;;1.90;1.60;;;;;;;8.30;45.81;101013.13;4953210;28;20047;-76
2023/01/22 09:32:57;;;;;;;1.40;1.20;;;;;;;8.28;42.87;101020.75;4953614;28;20482;-77
2023/01/22 09:35:26;;;;;;;1.33;1.17;;;;;;;7.77;43.44;101025.25;4954732;28;20050;-76
2023/01/22 09:37:54;;;;;;;2.63;1.65;;;;;;;8.22;46.59;101021.75;4954647;28;20051;-77
2023/01/22 09:40:42;;;;;;;1.35;1.25;;;;;;;7.72;46.11;101025.16;4937270;28;20047;-77
2023/01/22 09:43:37;;;;;;;3.55;1.85;;;;;;;7.55;46.31;101018.91;4937870;29;20070;-78
2023/01/22 09:46:17;;;;;;;1.75;1.60;;;;;;;7.71;45.83;101018.06;4931359;29;20058;-78
2023/01/22 09:48:49;;;;;;;0.80;0.70;;;;;;;7.19;45.35;101022.69;4955482;29;20054;-78
2023/01/22 09:51:18;;;;;;;4.07;1.70;;;;;;;7.39;45.77;101021.41;4954588;28;20043;-77
2023/01/22 09:53:53;;;;;;;2.55;1.67;;;;;;;7.54;45.06;101018.09;4951895;28;20051;-75
2023/01/22 09:56:29;;;;;;;1.42;1.27;;;;;;;7.77;48.11;101017.06;4951732;28;20039;-75
2023/01/22 09:59:00;;;;;;;1.73;1.30;;;;;;;7.81;46.68;101022.84;4954821;28;20047;-75
2023/01/22 10:01:29;;;;;;;1.73;1.45;;;;;;;7.65;45.55;101016.34;4954585;28;20043;-75
2023/01/22 10:04:02;;;;;;;2.35;1.40;;;;;;;7.50;46.14;101012.31;4952880;28;20055;-75
2023/01/22 10:06:30;;;;;;;1.65;1.27;;;;;;;7.36;46.58;101017.28;4952008;28;20342;-77
2023/01/22 10:09:10;;;;;;;4.55;1.73;;;;;;;7.65;47.96;101019.91;4952972;28;20407;-75
2023/01/22 10:11:38;;;;;;;27.35;8.52;;;;;;;7.91;46.58;101030.34;4954004;28;20039;-75
2023/01/22 10:14:11;;;;;;;3.85;2.45;;;;;;;8.23;46.93;101023.41;4949154;28;20418;-75
2023/01/22 10:16:40;;;;;;;2.37;2.13;;;;;;;8.13;46.13;101024.09;4950882;28;20059;-76
2023/01/22 10:19:26;;;;;;;1.88;1.77;;;;;;;8.15;45.67;101013.75;4953574;28;20047;-75
2023/01/22 10:22:01;;;;;;;1.80;1.58;;;;;;;8.26;46.87;101020.97;4954098;28;20050;-74
2023/01/22 10:24:29;;;;;;;2.75;2.33;;;;;;;8.46;45.80;101023.16;4950413;28;20043;-75
2023/01/22 10:27:10;;;;;;;2.05;1.70;;;;;;;8.50;46.28;101028.09;4954412;28;20055;-75
2023/01/22 10:29:38;;;;;;;3.00;1.88;;;;;;;8.39;46.21;101022.53;4954597;29;20395;-75
2023/01/22 10:32:21;;;;;;;2.08;1.60;;;;;;;7.92;46.07;101015.66;4954096;28;20050;-75
2023/01/22 10:35:06;;;;;;;2.95;2.10;;;;;;;8.16;47.19;101020.88;4952111;28;20047;-74
2023/01/22 10:37:47;;;;;;;1.55;1.42;;;;;;;8.38;47.02;101020.03;4954314;28;20051;-74
2023/01/22 10:40:32;;;;;;;2.45;1.70;;;;;;;9.03;45.40;101022.94;4951651;28;20051;-75
2023/01/22 10:43:04;;;;;;;1.98;1.52;;;;;;;8.90;44.71;101020.66;4951720;28;20410;-75
2023/01/22 10:45:32;;;;;;;2.97;1.70;;;;;;;8.55;44.40;101012.63;4951534;28;20058;-74
2023/01/22 10:48:15;;;;;;;2.10;1.70;;;;;;;9.09;46.41;101012.91;4953785;28;20051;-73
2023/01/22 10:50:44;;;;;;;5.10;2.00;;;;;;;9.09;44.25;101015.66;4945781;28;20047;-78
2023/01/22 10:53:35;;;;;;;2.00;1.45;;;;;;;8.68;44.93;101016.88;4946925;29;20057;-76
2023/01/22 10:56:09;;;;;;;3.80;1.70;;;;;;;9.16;44.05;101002.59;4932373;29;20121;-76
2023/01/22 10:58:47;;;;;;;2.28;1.38;;;;;;;9.57;43.81;100993.88;4954281;29;20379;-77
2023/01/22 11:01:34;;;;;;;2.50;1.80;;;;;;;9.53;43.50;100998.22;4954597;29;20051;-76
2023/01/22 11:04:24;;;;;;;1.35;1.13;;;;;;;9.22;42.83;101007.00;4950635;28;20062;-76
2023/01/22 11:07:17;;;;;;;2.30;1.40;;;;;;;9.14;44.69;100993.81;4949348;28;20379;-75
2023/01/22 11:09:55;;;;;;;2.38;1.50;;;;;;;9.17;43.40;100996.03;4952097;28;20035;-76
2023/01/22 11:12:34;;;;;;;4.35;2.13;;;;;;;9.20;43.91;101000.16;4950257;28;20411;-75
2023/01/22 11:15:08;;;;;;;3.03;1.80;;;;;;;9.10;43.19;100993.53;4949645;28;20046;-75
2023/01/22 11:17:41;;;;;;;9.07;4.00;;;;;;;9.25;44.04;100989.28;4952578;28;20047;-75
2023/01/22 11:20:31;;;;;;;11.30;4.63;;;;;;;9.03;43.75;100995.66;4925494;29;20072;-76
2023/01/22 11:23:04;;;;;;;3.65;2.72;;;;;;;9.03;43.18;100998.38;4936851;29;20052;-75
2023/01/22 11:25:40;;;;;;;1.88;1.73;;;;;;;9.16;44.42;100993.56;4939834;29;20132;-74
2023/01/22 11:28:44;;;;;;;2.83;1.88;;;;;;;9.23;45.21;100985.97;4953811;29;20051;-75
2023/01/22 11:31:21;;;;;;;3.22;1.73;;;;;;;9.05;43.05;100984.47;4947415;29;20054;-74
2023/01/22 11:34:11;;;;;;;2.30;1.50;;;;;;;8.97;42.95;100977.56;4953810;29;20062;-73
2023/01/22 11:37:07;;;;;;;1.73;1.63;;;;;;;9.27;42.29;100971.56;4950998;29;20044;-74
2023/01/22 11:39:42;;;;;;;2.60;1.55;;;;;;;9.65;41.17;100977.00;4917355;29;20102;-74
2023/01/22 11:42:19;;;;;;;2.13;1.42;;;;;;;9.57;41.65;100968.47;4940208;29;20058;-75
2023/01/22 11:44:57;;;;;;;2.67;1.40;;;;;;;8.99;41.97;100973.50;4950012;29;20050;-75
2023/01/22 11:47:47;;;;;;;1.67;1.27;;;;;;;9.04;43.29;100961.81;4952064;29;20051;-74
2023/01/22 11:50:29;;;;;;;2.08;1.35;;;;;;;9.55;42.80;100961.34;4953385;29;20047;-75
2023/01/22 11:53:00;;;;;;;1.33;1.23;;;;;;;9.59;42.13;100966.31;4924914;29;20054;-74
2023/01/22 11:55:54;;;;;;;2.97;1.17;;;;;;;9.36;43.12;100963.69;4952757;29;20062;-73
2023/01/22 11:58:28;;;;;;;1.73;1.38;;;;;;;9.31;44.51;100960.09;4942046;29;20051;-74
2023/01/22 12:01:14;;;;;;;1.48;1.17;;;;;;;9.70;41.38;100957.06;4932689;29;20051;-74